Flight Track Log - Related Links

Times and Time Zones

All times are in EDT time to prevent confusion due to time zone crossing. See the SKW6492 flight status page for this flight to view local times or setup timezone preferences in your user account.


Time Position Orientation Groundspeed Altitude Reporting Facility
EDT Latitude Longitude Course Direction KTS MPH feet Rate Location/Type
Thu 04:31:41 PM 30.2539 -97.7547 291° West 226 260 5,200  Level Houston Center
Thu 04:32:43 PM 30.2867 -97.8286 297° West 252 290 7,800 2,661 Climbing Houston Center
Thu 04:33:00 PM 30.4446 -97.7476 293° West  Level FlightAware Approximate
Thu 04:33:45 PM 30.3300 -97.9089 302° West 270 311 10,700  Level Houston Center
Thu 04:34:00 PM 30.4880 -97.8669 293° West  Level FlightAware Approximate
Thu 04:34:47 PM 30.3722 -97.9858 302° West 293 337 12,400  Level Houston Center
Thu 04:35:00 PM 30.5292 -97.9874 291° West  Level FlightAware Approximate
Thu 04:35:49 PM 30.4203 -98.0761 302° West 320 368 14,200  Level Houston Center
Thu 04:36:00 PM 30.5695 -98.1083 291° West  Level FlightAware Approximate
Thu 04:36:51 PM 30.4706 -98.1697 302° West 335 386 16,700  Level Houston Center
Thu 04:37:53 PM 30.5169 -98.2858 295° West 337 388 18,800 1,887 Climbing Houston Center
Thu 04:38:55 PM 30.5589 -98.3878 296° West 345 397 20,600 1,645 Climbing Houston Center
Thu 04:39:57 PM 30.6022 -98.4942 295° West 358 412 22,200 1,190 Climbing Houston Center
Thu 04:41:00 PM 30.7061 -98.5554 294° West  Level Estimated
Thu 04:45:08 PM 30.7717 -99.0919 291° West 415 478 28,000  Level Houston Center
Thu 04:46:10 PM 30.8286 -99.2158 298° West 420 483 29,100 1,258 Climbing Houston Center
Thu 04:47:12 PM 30.8917 -99.3581 297° West 415 478 30,600 1,452 Climbing Houston Center
Thu 04:48:00 PM 31.3980 -98.9667 292° West  Level Estimated
Thu 04:48:14 PM 30.9442 -99.4722 298° West 404 465 32,100  Level Houston Center
Thu 04:49:00 PM 31.3414 -99.0784 239° Southwest  Level FlightAware Approximate
Thu 04:49:16 PM 30.9947 -99.5853 298° West 397 457 33,400  Level Houston Center
Thu 04:50:00 PM 31.4406 -99.1364 286° West  Level Estimated
Thu 04:50:18 PM 31.0431 -99.6956 297° West 390 449 34,200  Level Houston Center
Thu 04:51:00 PM 31.5398 -99.1946 294° West  Level Estimated
Thu 04:51:21 PM 31.0925 -99.8083 297° West 391 450 34,800  Level Houston Center
Thu 04:52:00 PM 31.4875 -99.3093 242° Southwest  Level FlightAware Approximate
Thu 04:52:22 PM 31.1425 -99.9239 297° West 396 456 35,500  Level Houston Center
Thu 04:53:00 PM 31.5872 -99.3663 291° West  Level Estimated
Thu 04:53:24 PM 31.2039 -100.0594 298° West 396 456 36,900  Level Houston Center
Thu 04:54:26 PM 31.2589 -100.1614 302° West 379 436 38,000 532 Climbing Houston Center
Thu 04:55:28 PM 31.3544 -100.2222 331° Northwest 395 455 38,000  Level Houston Center
Thu 04:56:31 PM 31.4619 -100.2608 343° North 403 464 38,000  Level Houston Center
Thu 04:57:33 PM 31.5722 -100.3008 343° North 412 474 38,000  Level Houston Center
Thu 04:58:35 PM 31.7044 -100.3500 342° North 414 476 38,000  Level Houston Center
Thu 04:59:37 PM 31.8158 -100.3903 343° North 418 481 38,000  Level Houston Center
Thu 05:00:39 PM 31.9244 -100.4314 342° North 411 473 38,000  Level Fort Worth Center
Thu 05:01:39 PM 32.0361 -100.4742 342° North 416 479 38,000  Level Fort Worth Center
Thu 05:02:39 PM 32.1603 -100.5200 343° North 416 479 38,000  Level Fort Worth Center
Thu 05:03:39 PM 32.2719 -100.5608 343° North 421 484 38,000  Level Fort Worth Center
Thu 05:04:39 PM 32.3836 -100.6017 343° North 421 484 38,000  Level Fort Worth Center
Thu 05:05:39 PM 32.4975 -100.6425 343° North 421 484 38,000  Level Fort Worth Center
Thu 05:06:39 PM 32.6069 -100.6833 343° North 421 484 38,000  Level Fort Worth Center
Thu 05:07:39 PM 32.7164 -100.7269 341° North 421 484 38,000  Level Fort Worth Center
Thu 05:08:39 PM 32.8261 -100.7681 343° North 421 484 38,000  Level Fort Worth Center
Thu 05:09:39 PM 32.9336 -100.8067 343° North 414 476 38,000  Level Fort Worth Center
Thu 05:10:39 PM 33.0431 -100.8481 342° North 414 476 38,000  Level Fort Worth Center
Thu 05:11:39 PM 33.1525 -100.8897 342° North 409 471 38,000  Level Fort Worth Center
Thu 05:12:39 PM 33.2578 -100.9308 342° North 404 465 38,000  Level Fort Worth Center
Thu 05:13:39 PM 33.3692 -100.9728 343° North 404 465 38,000  Level Fort Worth Center
Thu 05:14:39 PM 33.4767 -101.0119 343° North 404 465 38,000  Level Fort Worth Center
Thu 05:15:39 PM 33.5800 -101.0486 344° North 404 465 38,000  Level Fort Worth Center
Thu 05:16:39 PM 33.6975 -101.0958 342° North 413 475 38,000  Level Fort Worth Center
Thu 05:17:39 PM 33.7967 -101.1350 342° North 413 475 38,000  Level Fort Worth Center
Thu 05:18:39 PM 33.9203 -101.1831 342° North 413 475 38,000  Level Fort Worth Center
Thu 05:19:39 PM 34.0172 -101.2197 343° North 419 482 38,000  Level Fort Worth Center
Thu 05:20:39 PM 34.1369 -101.2675 342° North 419 482 38,000  Level Fort Worth Center
Thu 05:22:18 PM 34.3175 -101.3339 343° North 417 480 38,000  Level Albuquerque Center
Thu 05:23:20 PM 34.4292 -101.3783 342° North 421 484 38,000  Level Albuquerque Center
Thu 05:24:22 PM 34.5406 -101.4219 342° North 421 484 38,000  Level Albuquerque Center
Thu 05:25:24 PM 34.6514 -101.4650 342° North 420 483 38,000  Level Albuquerque Center
Thu 05:26:26 PM 34.7606 -101.5106 341° North 416 479 38,000  Level Albuquerque Center
Thu 05:27:28 PM 34.8700 -101.5531 342° North 414 476 38,000  Level Albuquerque Center
Thu 05:28:30 PM 35.0008 -101.6039 342° North 412 474 38,000  Level Albuquerque Center
Thu 05:29:32 PM 35.1128 -101.6489 342° North 417 480 38,000  Level Albuquerque Center
Thu 05:30:33 PM 35.2228 -101.6917 342° North 414 476 38,000  Level Albuquerque Center
Thu 05:31:35 PM 35.3289 -101.7408 339° North 409 471 38,000  Level Albuquerque Center
Thu 05:32:37 PM 35.4378 -101.7917 339° North 411 473 38,000  Level Albuquerque Center
Thu 05:33:39 PM 35.5522 -101.8442 340° North 415 478 38,000  Level Albuquerque Center
Thu 05:34:41 PM 35.6619 -101.8958 339° North 418 481 38,000  Level Albuquerque Center
Thu 05:35:43 PM 35.7717 -101.9467 339° North 421 484 38,000  Level Albuquerque Center
Thu 05:36:45 PM 35.8814 -101.9967 340° North 420 483 38,000  Level Albuquerque Center
Thu 05:37:46 PM 36.0122 -102.0583 339° North 420 483 38,000  Level Albuquerque Center
Thu 05:38:48 PM 36.1197 -102.1086 339° North 415 478 38,000  Level Albuquerque Center
Thu 05:39:50 PM 36.2275 -102.1589 339° North 414 476 38,000  Level Albuquerque Center
Thu 05:40:52 PM 36.3328 -102.2083 339° North 408 470 38,000  Level Albuquerque Center
Thu 05:41:54 PM 36.4400 -102.2606 339° North 412 474 38,000  Level Albuquerque Center
Thu 05:42:55 PM 36.5456 -102.3092 340° North 407 468 38,000  Level Albuquerque Center
Thu 05:43:57 PM 36.6533 -102.3603 339° North 412 474 38,000  Level Albuquerque Center
Thu 05:44:59 PM 36.7814 -102.4231 339° North 413 475 38,000 48 Level Albuquerque Center
Thu 05:46:01 PM 36.8650 -102.4631 339° North 407 468 38,100 -97 Climbing Albuquerque Center
Thu 05:47:03 PM 36.9983 -102.5278 339° North 415 478 37,800 -390 Descending Albuquerque Center
Thu 05:48:04 PM 37.1042 -102.5783 339° North 421 484 37,300 -488 Descending Albuquerque Center
Thu 05:49:06 PM 37.2297 -102.6394 339° North 430 495 36,800 -484 Descending Albuquerque Center
Thu 05:50:08 PM 37.3403 -102.6947 338° Northwest 439 505 36,300 -387 Descending Albuquerque Center
Thu 05:51:10 PM 37.4675 -102.7542 340° North 440 506 36,000 -231 Descending Albuquerque Center
Thu 05:51:26 PM 37.4664 -102.7525 130° Southeast 434 499 36,000  Level Denver Center
Thu 05:52:28 PM 37.6033 -102.8061 343° North 411 473 36,000  Level Denver Center
Thu 05:53:30 PM 37.7053 -102.8378 346° North 396 456 36,000  Level Denver Center
Thu 05:54:32 PM 37.8203 -102.8744 346° North 383 441 36,000 -242 Level Denver Center
Thu 05:55:34 PM 37.9169 -102.9042 346° North 376 433 35,500 -823 Descending Denver Center
Thu 05:56:36 PM 38.0353 -102.9431 345° North 386 444 34,300 -1,016 Descending Denver Center
Thu 05:57:38 PM 38.1394 -102.9750 346° North 399 459 33,400 -960 Descending Denver Center
Thu 05:58:41 PM 38.2603 -103.0133 346° North 399 459 32,300 -1,008 Descending Denver Center
Thu 05:59:43 PM 38.3642 -103.0467 346° North 400 460 31,300 -968 Descending Denver Center
Thu 06:00:45 PM 38.4678 -103.0806 346° North 401 461 30,300 -629 Descending Denver Center
Thu 06:01:47 PM 38.5736 -103.1458 334° Northwest 402 463 30,000 -339 Descending Denver Center
Thu 06:02:49 PM 38.6442 -103.2467 312° West 379 436 29,600 -677 Descending Denver Center
Thu 06:03:51 PM 38.7144 -103.3475 312° West 375 432 28,600 -706 Descending Denver Center
Thu 06:05:05 PM 38.7933 -103.4597 312° West 373 429 28,000 -971 Descending Denver Center
Thu 06:06:07 PM 38.8742 -103.5722 313° West 354 407 26,400 -1,500 Descending Denver Center
Thu 06:07:09 PM 38.9403 -103.6642 313° West 347 399 24,900 -1,392 Descending Denver Center
Thu 06:08:12 PM 39.0028 -103.7564 311° West 339 390 23,500 -1,104 Descending Denver Center
Thu 06:09:14 PM 39.0669 -103.8458 313° West 337 388 22,600 -726 Descending Denver Center
Thu 06:10:16 PM 39.1264 -103.9317 312° West 323 372 22,000 -1,113 Descending Denver Center
Thu 06:11:18 PM 39.1800 -104.0083 312° West 292 336 20,300 -1,935 Descending Denver Center
Thu 06:12:20 PM 39.2461 -104.0836 319° Northwest 271 312 18,000 -1,790 Descending Denver Center
Thu 06:13:22 PM 39.2936 -104.1617 308° West 280 322 16,600 -1,694 Descending Denver Center
Thu 06:14:24 PM 39.3353 -104.2422 304° West 274 315 14,500 -1,452 Descending Denver Center
Thu 06:15:26 PM 39.3533 -104.3344 284° West 248 285 13,600 -677 Descending Denver Center
Thu 06:16:28 PM 39.3606 -104.4139 277° West 222 255 13,100 -1,065 Descending Denver Center
Thu 06:17:30 PM 39.4097 -104.4714 318° Northwest 235 270 11,400 -1,790 Descending Denver Center
Thu 06:18:32 PM 39.4661 -104.5136 330° Northwest 233 268 9,400 -1,113 Descending Denver Center
Thu 06:19:34 PM 39.5211 -104.5600 327° Northwest 236 272 9,100 -145 Descending Denver Center
Thu 06:20:36 PM 39.5800 -104.6089 327° Northwest 234 269 9,100  Level Denver Center
Thu 06:21:38 PM 39.6378 -104.6444 335° Northwest 233 268 9,100  Level Denver Center

Login

Don't have an account? Register now (free) for customized features, flight alerts, and more!